sensor_id;sensor_type;location;lat;lon;timestamp;pressure;altitude;pressure_sealevel;temperature;humidity
65832;BME280;52593;42.648;23.332;2023-05-22T00:00:28;94329.53;;;11.67;91.97
65832;BME280;52593;42.648;23.332;2023-05-22T00:02:56;94331.56;;;11.65;92.61
65832;BME280;52593;42.648;23.332;2023-05-22T00:05:21;94332.63;;;11.64;92.30
65832;BME280;52593;42.648;23.332;2023-05-22T00:07:47;94324.56;;;11.64;92.79
65832;BME280;52593;42.648;23.332;2023-05-22T00:10:12;94321.69;;;11.66;92.79
65832;BME280;52593;42.648;23.332;2023-05-22T00:12:37;94324.41;;;11.72;93.19
65832;BME280;52593;42.648;23.332;2023-05-22T00:15:03;94326.50;;;11.77;93.00
65832;BME280;52593;42.648;23.332;2023-05-22T00:17:29;94319.34;;;11.84;92.71
65832;BME280;52593;42.648;23.332;2023-05-22T00:19:58;94311.44;;;12.04;91.81
65832;BME280;52593;42.648;23.332;2023-05-22T00:22:28;94308.59;;;12.12;91.22
65832;BME280;52593;42.648;23.332;2023-05-22T00:24:56;94313.16;;;12.19;91.22
65832;BME280;52593;42.648;23.332;2023-05-22T00:27:21;94314.41;;;12.23;90.79
65832;BME280;52593;42.648;23.332;2023-05-22T00:29:47;94319.56;;;12.24;90.71
65832;BME280;52593;42.648;23.332;2023-05-22T00:32:12;94323.13;;;12.31;90.52
65832;BME280;52593;42.648;23.332;2023-05-22T00:34:38;94323.53;;;12.35;90.34
65832;BME280;52593;42.648;23.332;2023-05-22T00:37:03;94327.25;;;12.34;90.20
65832;BME280;52593;42.648;23.332;2023-05-22T00:39:29;94328.91;;;12.35;90.06
65832;BME280;52593;42.648;23.332;2023-05-22T00:41:54;94328.09;;;12.35;89.12
65832;BME280;52593;42.648;23.332;2023-05-22T00:44:20;94326.44;;;12.34;89.43
65832;BME280;52593;42.648;23.332;2023-05-22T00:46:47;94316.31;;;12.36;90.04
65832;BME280;52593;42.648;23.332;2023-05-22T00:49:12;94326.84;;;12.37;89.14
65832;BME280;52593;42.648;23.332;2023-05-22T00:51:37;94327.22;;;12.27;90.15
65832;BME280;52593;42.648;23.332;2023-05-22T00:54:04;94326.22;;;12.28;89.88
65832;BME280;52593;42.648;23.332;2023-05-22T00:56:30;94323.06;;;12.25;90.88
65832;BME280;52593;42.648;23.332;2023-05-22T00:58:55;94323.31;;;12.30;90.03
65832;BME280;52593;42.648;23.332;2023-05-22T01:01:21;94322.47;;;12.23;90.67
65832;BME280;52593;42.648;23.332;2023-05-22T01:03:47;94314.00;;;12.19;91.14
65832;BME280;52593;42.648;23.332;2023-05-22T01:06:15;94323.88;;;12.19;90.73
65832;BME280;52593;42.648;23.332;2023-05-22T01:08:42;94315.22;;;12.23;90.62
65832;BME280;52593;42.648;23.332;2023-05-22T01:11:21;94316.28;;;12.29;89.85
65832;BME280;52593;42.648;23.332;2023-05-22T01:24:59;94317.66;;;12.11;91.00
65832;BME280;52593;42.648;23.332;2023-05-22T01:33:00;94313.31;;;12.04;90.88
65832;BME280;52593;42.648;23.332;2023-05-22T01:35:28;94312.84;;;12.00;91.03
65832;BME280;52593;42.648;23.332;2023-05-22T01:37:55;94310.16;;;11.93;91.36
65832;BME280;52593;42.648;23.332;2023-05-22T01:40:21;94303.56;;;11.96;92.32
65832;BME280;52593;42.648;23.332;2023-05-22T01:42:48;94303.69;;;11.88;92.38
65832;BME280;52593;42.648;23.332;2023-05-22T01:45:13;94305.47;;;11.81;92.50
65832;BME280;52593;42.648;23.332;2023-05-22T01:47:39;94307.34;;;11.80;93.45
65832;BME280;52593;42.648;23.332;2023-05-22T01:50:05;94306.66;;;11.71;93.53
65832;BME280;52593;42.648;23.332;2023-05-22T01:55:12;94301.38;;;11.50;94.93
65832;BME280;52593;42.648;23.332;2023-05-22T01:57:58;94306.59;;;11.58;95.01
65832;BME280;52593;42.648;23.332;2023-05-22T02:00:24;94304.25;;;11.48;94.71
65832;BME280;52593;42.648;23.332;2023-05-22T02:02:56;94304.16;;;11.35;95.63
65832;BME280;52593;42.648;23.332;2023-05-22T02:05:23;94301.41;;;11.28;96.28
65832;BME280;52593;42.648;23.332;2023-05-22T02:07:53;94303.44;;;11.19;96.40
65832;BME280;52593;42.648;23.332;2023-05-22T02:10:20;94308.13;;;11.17;96.18
65832;BME280;52593;42.648;23.332;2023-05-22T02:12:46;94305.41;;;11.11;96.66
65832;BME280;52593;42.648;23.332;2023-05-22T02:15:12;94303.03;;;11.01;97.10
65832;BME280;52593;42.648;23.332;2023-05-22T02:17:38;94308.34;;;10.94;97.47
65832;BME280;52593;42.648;23.332;2023-05-22T02:20:08;94298.63;;;10.93;97.73
65832;BME280;52593;42.648;23.332;2023-05-22T02:22:40;94307.25;;;10.88;97.94
65832;BME280;52593;42.648;23.332;2023-05-22T02:25:06;94302.22;;;10.79;98.30
65832;BME280;52593;42.648;23.332;2023-05-22T02:27:33;94309.25;;;10.80;98.36
65832;BME280;52593;42.648;23.332;2023-05-22T02:29:59;94305.34;;;10.82;98.22
65832;BME280;52593;42.648;23.332;2023-05-22T02:32:24;94311.72;;;10.81;97.91
65832;BME280;52593;42.648;23.332;2023-05-22T02:34:50;94308.38;;;10.79;98.41
65832;BME280;52593;42.648;23.332;2023-05-22T02:37:15;94307.97;;;10.76;98.78
65832;BME280;52593;42.648;23.332;2023-05-22T02:39:40;94307.72;;;10.70;98.95
65832;BME280;52593;42.648;23.332;2023-05-22T02:42:06;94306.66;;;10.71;98.61
65832;BME280;52593;42.648;23.332;2023-05-22T02:44:31;94305.84;;;10.71;98.60
65832;BME280;52593;42.648;23.332;2023-05-22T02:46:57;94303.56;;;10.68;98.84
65832;BME280;52593;42.648;23.332;2023-05-22T02:49:22;94301.19;;;10.58;99.19
65832;BME280;52593;42.648;23.332;2023-05-22T02:51:47;94301.00;;;10.60;99.55
65832;BME280;52593;42.648;23.332;2023-05-22T02:54:14;94291.50;;;10.57;99.37
65832;BME280;52593;42.648;23.332;2023-05-22T02:56:40;94290.41;;;10.51;99.44
65832;BME280;52593;42.648;23.332;2023-05-22T02:59:06;94296.97;;;10.49;99.71
65832;BME280;52593;42.648;23.332;2023-05-22T03:01:31;94290.41;;;10.51;100.00
65832;BME280;52593;42.648;23.332;2023-05-22T03:03:56;94291.56;;;10.64;98.76
65832;BME280;52593;42.648;23.332;2023-05-22T03:06:22;94300.53;;;10.56;98.31
65832;BME280;52593;42.648;23.332;2023-05-22T03:08:49;94296.22;;;10.55;98.14
65832;BME280;52593;42.648;23.332;2023-05-22T03:11:15;94291.16;;;10.45;98.55
65832;BME280;52593;42.648;23.332;2023-05-22T03:13:40;94309.44;;;10.42;98.88
65832;BME280;52593;42.648;23.332;2023-05-22T03:16:05;94297.53;;;10.44;99.05
65832;BME280;52593;42.648;23.332;2023-05-22T03:18:32;94301.06;;;10.45;99.17
65832;BME280;52593;42.648;23.332;2023-05-22T03:20:57;94302.00;;;10.37;99.54
65832;BME280;52593;42.648;23.332;2023-05-22T03:23:23;94303.72;;;10.45;99.82
65832;BME280;52593;42.648;23.332;2023-05-22T03:25:49;94306.22;;;10.46;99.11
65832;BME280;52593;42.648;23.332;2023-05-22T03:28:15;94305.16;;;10.47;98.98
65832;BME280;52593;42.648;23.332;2023-05-22T03:30:40;94304.16;;;10.48;98.44
65832;BME280;52593;42.648;23.332;2023-05-22T03:33:06;94301.59;;;10.55;98.66
65832;BME280;52593;42.648;23.332;2023-05-22T03:35:31;94301.38;;;10.57;98.37
65832;BME280;52593;42.648;23.332;2023-05-22T03:37:56;94306.16;;;10.61;98.01
65832;BME280;52593;42.648;23.332;2023-05-22T03:40:22;94302.03;;;10.59;98.15
65832;BME280;52593;42.648;23.332;2023-05-22T03:42:47;94304.31;;;10.62;98.15
65832;BME280;52593;42.648;23.332;2023-05-22T03:45:13;94305.97;;;10.63;98.53
65832;BME280;52593;42.648;23.332;2023-05-22T03:47:39;94303.56;;;10.68;98.33
65832;BME280;52593;42.648;23.332;2023-05-22T03:50:04;94310.06;;;10.80;98.39
65832;BME280;52593;42.648;23.332;2023-05-22T03:52:30;94304.28;;;10.77;98.32
65832;BME280;52593;42.648;23.332;2023-05-22T03:54:55;94302.84;;;10.81;98.20
65832;BME280;52593;42.648;23.332;2023-05-22T03:57:20;94303.13;;;10.86;98.15
65832;BME280;52593;42.648;23.332;2023-05-22T03:59:46;94309.88;;;11.03;97.95
65832;BME280;52593;42.648;23.332;2023-05-22T04:02:11;94300.78;;;11.26;96.48
65832;BME280;52593;42.648;23.332;2023-05-22T04:04:41;94305.75;;;11.29;96.01
65832;BME280;52593;42.648;23.332;2023-05-22T04:07:07;94302.47;;;11.27;96.39
65832;BME280;52593;42.648;23.332;2023-05-22T04:09:34;94302.88;;;11.31;96.20
65832;BME280;52593;42.648;23.332;2023-05-22T04:12:00;94306.06;;;11.41;96.60
65832;BME280;52593;42.648;23.332;2023-05-22T04:14:26;94306.88;;;11.41;96.33
65832;BME280;52593;42.648;23.332;2023-05-22T04:16:52;94309.66;;;11.55;96.97
65832;BME280;52593;42.648;23.332;2023-05-22T04:19:17;94311.00;;;11.72;94.96
65832;BME280;52593;42.648;23.332;2023-05-22T04:21:43;94313.19;;;11.62;93.97
65832;BME280;52593;42.648;23.332;2023-05-22T04:24:09;94312.16;;;11.56;94.72
65832;BME280;52593;42.648;23.332;2023-05-22T04:26:35;94310.06;;;11.52;94.40
65832;BME280;52593;42.648;23.332;2023-05-22T04:29:01;94315.66;;;11.57;95.73
65832;BME280;52593;42.648;23.332;2023-05-22T04:31:28;94315.06;;;11.62;95.37
65832;BME280;52593;42.648;23.332;2023-05-22T04:33:53;94315.06;;;11.62;95.93
65832;BME280;52593;42.648;23.332;2023-05-22T04:36:19;94324.78;;;11.63;96.04
65832;BME280;52593;42.648;23.332;2023-05-22T04:38:47;94327.31;;;11.77;94.85
65832;BME280;52593;42.648;23.332;2023-05-22T04:41:13;94320.31;;;11.76;94.53
65832;BME280;52593;42.648;23.332;2023-05-22T04:43:42;94326.94;;;11.81;94.11
65832;BME280;52593;42.648;23.332;2023-05-22T04:46:08;94325.84;;;11.97;93.91
65832;BME280;52593;42.648;23.332;2023-05-22T04:48:33;94324.72;;;11.91;93.18
65832;BME280;52593;42.648;23.332;2023-05-22T04:50:59;94314.50;;;12.01;93.14
65832;BME280;52593;42.648;23.332;2023-05-22T04:53:26;94320.56;;;12.10;92.79
65832;BME280;52593;42.648;23.332;2023-05-22T04:55:53;94323.28;;;12.23;92.30
65832;BME280;52593;42.648;23.332;2023-05-22T04:58:18;94328.50;;;12.31;91.45
65832;BME280;52593;42.648;23.332;2023-05-22T05:00:43;94322.69;;;12.28;91.15
65832;BME280;52593;42.648;23.332;2023-05-22T05:03:09;94324.97;;;12.31;91.11
65832;BME280;52593;42.648;23.332;2023-05-22T05:05:36;94323.97;;;12.39;91.02
65832;BME280;52593;42.648;23.332;2023-05-22T05:08:01;94318.19;;;12.42;90.54
65832;BME280;52593;42.648;23.332;2023-05-22T05:10:27;94328.16;;;12.55;89.53
65832;BME280;52593;42.648;23.332;2023-05-22T05:12:52;94324.69;;;12.61;88.99
65832;BME280;52593;42.648;23.332;2023-05-22T05:15:17;94320.59;;;12.72;90.07
65832;BME280;52593;42.648;23.332;2023-05-22T05:17:43;94329.91;;;12.76;89.06
65832;BME280;52593;42.648;23.332;2023-05-22T05:20:08;94336.91;;;12.77;87.88
65832;BME280;52593;42.648;23.332;2023-05-22T05:22:34;94334.28;;;13.03;87.48
65832;BME280;52593;42.648;23.332;2023-05-22T05:25:01;94335.72;;;13.06;86.15
65832;BME280;52593;42.648;23.332;2023-05-22T05:27:28;94329.94;;;12.96;85.72
65832;BME280;52593;42.648;23.332;2023-05-22T05:29:53;94334.25;;;12.97;85.75
65832;BME280;52593;42.648;23.332;2023-05-22T05:32:18;94325.66;;;13.22;85.93
65832;BME280;52593;42.648;23.332;2023-05-22T05:34:44;94323.38;;;13.18;86.32
65832;BME280;52593;42.648;23.332;2023-05-22T05:37:09;94337.88;;;13.37;84.65
65832;BME280;52593;42.648;23.332;2023-05-22T05:39:34;94332.91;;;13.34;84.21
65832;BME280;52593;42.648;23.332;2023-05-22T05:42:00;94336.44;;;13.42;84.19
65832;BME280;52593;42.648;23.332;2023-05-22T05:44:25;94333.94;;;13.53;82.51
65832;BME280;52593;42.648;23.332;2023-05-22T05:46:51;94336.63;;;13.53;82.50
65832;BME280;52593;42.648;23.332;2023-05-22T05:49:17;94325.88;;;13.67;82.36
65832;BME280;52593;42.648;23.332;2023-05-22T05:51:43;94324.00;;;13.87;80.48
65832;BME280;52593;42.648;23.332;2023-05-22T05:54:08;94325.44;;;13.97;80.07
65832;BME280;52593;42.648;23.332;2023-05-22T05:56:33;94335.09;;;14.24;77.14
65832;BME280;52593;42.648;23.332;2023-05-22T05:58:59;94335.09;;;14.24;77.94
65832;BME280;52593;42.648;23.332;2023-05-22T06:01:25;94337.72;;;14.38;76.97
65832;BME280;52593;42.648;23.332;2023-05-22T06:03:51;94335.63;;;14.53;73.57
65832;BME280;52593;42.648;23.332;2023-05-22T06:06:16;94337.28;;;14.48;73.44
65832;BME280;52593;42.648;23.332;2023-05-22T06:08:42;94330.44;;;14.52;73.13
65832;BME280;52593;42.648;23.332;2023-05-22T06:11:08;94334.56;;;14.54;73.17
65832;BME280;52593;42.648;23.332;2023-05-22T06:13:34;94335.19;;;14.50;73.19
65832;BME280;52593;42.648;23.332;2023-05-22T06:15:59;94332.50;;;14.56;71.02
65832;BME280;52593;42.648;23.332;2023-05-22T06:18:25;94328.13;;;14.69;70.85
65832;BME280;52593;42.648;23.332;2023-05-22T06:20:51;94333.91;;;14.72;68.80
65832;BME280;52593;42.648;23.332;2023-05-22T06:23:17;94335.78;;;14.65;68.03
65832;BME280;52593;42.648;23.332;2023-05-22T06:25:43;94339.53;;;14.64;67.93
65832;BME280;52593;42.648;23.332;2023-05-22T06:28:08;94333.25;;;14.77;66.71
65832;BME280;52593;42.648;23.332;2023-05-22T06:30:35;94340.44;;;14.90;66.28
65832;BME280;52593;42.648;23.332;2023-05-22T06:33:00;94334.53;;;15.06;63.03
65832;BME280;52593;42.648;23.332;2023-05-22T06:35:26;94335.28;;;15.20;64.31
65832;BME280;52593;42.648;23.332;2023-05-22T06:37:51;94333.28;;;15.41;63.35
65832;BME280;52593;42.648;23.332;2023-05-22T06:40:17;94333.94;;;15.61;60.50
65832;BME280;52593;42.648;23.332;2023-05-22T06:42:43;94328.63;;;15.80;60.30
65832;BME280;52593;42.648;23.332;2023-05-22T06:45:09;94330.47;;;16.04;60.15
65832;BME280;52593;42.648;23.332;2023-05-22T06:47:34;94334.84;;;16.24;58.26
65832;BME280;52593;42.648;23.332;2023-05-22T06:50:00;94331.19;;;16.37;59.06
65832;BME280;52593;42.648;23.332;2023-05-22T06:52:25;94331.56;;;16.59;57.88
65832;BME280;52593;42.648;23.332;2023-05-22T06:54:50;94331.22;;;16.86;56.95
65832;BME280;52593;42.648;23.332;2023-05-22T06:57:16;94336.84;;;17.03;58.26
65832;BME280;52593;42.648;23.332;2023-05-22T06:59:42;94337.63;;;17.22;57.97
65832;BME280;52593;42.648;23.332;2023-05-22T07:02:07;94328.41;;;17.41;55.90
65832;BME280;52593;42.648;23.332;2023-05-22T07:04:32;94333.53;;;17.31;55.08
65832;BME280;52593;42.648;23.332;2023-05-22T07:06:58;94331.53;;;17.26;54.35
65832;BME280;52593;42.648;23.332;2023-05-22T07:09:23;94335.66;;;17.29;54.60
65832;BME280;52593;42.648;23.332;2023-05-22T07:11:49;94331.88;;;17.18;56.37
65832;BME280;52593;42.648;23.332;2023-05-22T07:14:14;94326.47;;;17.18;55.72
65832;BME280;52593;42.648;23.332;2023-05-22T07:16:40;94324.81;;;17.17;56.78
65832;BME280;52593;42.648;23.332;2023-05-22T07:19:06;94327.56;;;17.29;56.37
65832;BME280;52593;42.648;23.332;2023-05-22T07:21:33;94323.53;;;17.20;57.67
65832;BME280;52593;42.648;23.332;2023-05-22T07:24:03;94328.00;;;17.26;57.59
65832;BME280;52593;42.648;23.332;2023-05-22T07:26:36;94321.69;;;17.44;59.21
65832;BME280;52593;42.648;23.332;2023-05-22T07:29:02;94331.56;;;17.38;55.94
65832;BME280;52593;42.648;23.332;2023-05-22T07:31:28;94331.56;;;17.38;54.61
65832;BME280;52593;42.648;23.332;2023-05-22T07:33:54;94327.84;;;17.51;53.60
65832;BME280;52593;42.648;23.332;2023-05-22T07:36:20;94329.16;;;17.60;53.95
65832;BME280;52593;42.648;23.332;2023-05-22T07:38:45;94329.34;;;17.47;56.58
65832;BME280;52593;42.648;23.332;2023-05-22T07:41:11;94338.19;;;17.54;55.75
65832;BME280;52593;42.648;23.332;2023-05-22T07:43:36;94321.44;;;17.34;56.99
65832;BME280;52593;42.648;23.332;2023-05-22T07:46:01;94326.63;;;17.47;56.73
65832;BME280;52593;42.648;23.332;2023-05-22T07:48:27;94326.63;;;17.47;56.75
65832;BME280;52593;42.648;23.332;2023-05-22T07:50:53;94326.91;;;17.57;57.00
65832;BME280;52593;42.648;23.332;2023-05-22T07:53:18;94325.94;;;17.52;56.15
65832;BME280;52593;42.648;23.332;2023-05-22T07:55:43;94322.16;;;17.41;57.03
65832;BME280;52593;42.648;23.332;2023-05-22T07:58:09;94325.56;;;17.36;57.87
65832;BME280;52593;42.648;23.332;2023-05-22T08:00:35;94326.81;;;17.22;58.41
65832;BME280;52593;42.648;23.332;2023-05-22T08:03:00;94323.09;;;17.35;57.06
65832;BME280;52593;42.648;23.332;2023-05-22T08:05:26;94327.59;;;17.53;58.23
65832;BME280;52593;42.648;23.332;2023-05-22T08:07:51;94314.81;;;17.83;57.71
65832;BME280;52593;42.648;23.332;2023-05-22T08:10:17;94312.72;;;17.86;55.21
65832;BME280;52593;42.648;23.332;2023-05-22T08:12:43;94316.72;;;18.18;55.70
65832;BME280;52593;42.648;23.332;2023-05-22T08:15:09;94315.78;;;18.25;56.43
65832;BME280;52593;42.648;23.332;2023-05-22T08:17:35;94317.44;;;18.26;55.80
65832;BME280;52593;42.648;23.332;2023-05-22T08:20:01;94314.47;;;18.39;53.87
65832;BME280;52593;42.648;23.332;2023-05-22T08:22:28;94316.69;;;18.54;53.08
65832;BME280;52593;42.648;23.332;2023-05-22T08:24:54;94311.38;;;18.59;51.18
65832;BME280;52593;42.648;23.332;2023-05-22T08:27:19;94308.16;;;18.74;51.01
65832;BME280;52593;42.648;23.332;2023-05-22T08:29:44;94312.28;;;18.88;51.34
65832;BME280;52593;42.648;23.332;2023-05-22T08:32:10;94311.97;;;19.02;49.08
65832;BME280;52593;42.648;23.332;2023-05-22T08:34:35;94305.66;;;19.25;48.69
65832;BME280;52593;42.648;23.332;2023-05-22T08:37:00;94310.50;;;19.40;48.25
65832;BME280;52593;42.648;23.332;2023-05-22T08:39:26;94297.94;;;19.51;48.90
65832;BME280;52593;42.648;23.332;2023-05-22T08:41:52;94309.09;;;19.83;47.83
65832;BME280;52593;42.648;23.332;2023-05-22T08:44:18;94303.56;;;19.95;46.65
65832;BME280;52593;42.648;23.332;2023-05-22T08:46:45;94304.41;;;19.95;46.04
65832;BME280;52593;42.648;23.332;2023-05-22T08:49:12;94295.25;;;20.02;44.17
65832;BME280;52593;42.648;23.332;2023-05-22T08:51:40;94299.25;;;20.16;40.68
65832;BME280;52593;42.648;23.332;2023-05-22T08:54:07;94294.28;;;19.91;41.41
65832;BME280;52593;42.648;23.332;2023-05-22T08:56:33;94307.84;;;20.08;44.09
65832;BME280;52593;42.648;23.332;2023-05-22T08:58:59;94298.81;;;20.24;41.91
65832;BME280;52593;42.648;23.332;2023-05-22T09:01:27;94296.34;;;20.62;41.60
65832;BME280;52593;42.648;23.332;2023-05-22T09:03:56;94291.97;;;20.61;40.90
65832;BME280;52593;42.648;23.332;2023-05-22T09:06:23;94284.94;;;20.21;42.46
65832;BME280;52593;42.648;23.332;2023-05-22T09:08:48;94287.56;;;20.55;42.96
65832;BME280;52593;42.648;23.332;2023-05-22T09:11:14;94291.16;;;20.60;42.22
65832;BME280;52593;42.648;23.332;2023-05-22T09:13:39;94292.97;;;20.72;42.87
65832;BME280;52593;42.648;23.332;2023-05-22T09:16:12;94299.50;;;20.71;42.38
65832;BME280;52593;42.648;23.332;2023-05-22T09:18:38;94292.56;;;20.63;40.42
65832;BME280;52593;42.648;23.332;2023-05-22T09:21:08;94286.97;;;20.70;40.57
65832;BME280;52593;42.648;23.332;2023-05-22T09:23:34;94285.63;;;20.94;40.44
65832;BME280;52593;42.648;23.332;2023-05-22T09:26:01;94297.75;;;21.09;39.02
65832;BME280;52593;42.648;23.332;2023-05-22T09:28:32;94294.47;;;21.34;40.10
65832;BME280;52593;42.648;23.332;2023-05-22T09:30:59;94295.22;;;21.02;39.01
65832;BME280;52593;42.648;23.332;2023-05-22T09:33:24;94294.78;;;21.10;38.70
65832;BME280;52593;42.648;23.332;2023-05-22T09:35:53;94295.34;;;20.90;38.72
65832;BME280;52593;42.648;23.332;2023-05-22T09:38:21;94292.75;;;21.00;39.64
65832;BME280;52593;42.648;23.332;2023-05-22T09:40:51;94286.47;;;21.22;40.69
65832;BME280;52593;42.648;23.332;2023-05-22T09:43:17;94297.34;;;21.22;40.34
65832;BME280;52593;42.648;23.332;2023-05-22T09:45:43;94295.81;;;20.82;40.82
65832;BME280;52593;42.648;23.332;2023-05-22T09:48:08;94295.53;;;20.61;41.21
65832;BME280;52593;42.648;23.332;2023-05-22T09:50:37;94289.97;;;20.51;40.88
65832;BME280;52593;42.648;23.332;2023-05-22T09:53:07;94300.78;;;20.29;42.09
65832;BME280;52593;42.648;23.332;2023-05-22T09:55:34;94299.16;;;20.28;42.30
65832;BME280;52593;42.648;23.332;2023-05-22T09:58:02;94308.91;;;20.07;41.67
65832;BME280;52593;42.648;23.332;2023-05-22T10:00:29;94303.81;;;19.93;42.12
65832;BME280;52593;42.648;23.332;2023-05-22T10:03:07;94303.75;;;19.88;42.64
65832;BME280;52593;42.648;23.332;2023-05-22T10:05:34;94301.44;;;19.97;43.08
65832;BME280;52593;42.648;23.332;2023-05-22T10:08:25;94299.25;;;20.16;42.29
65832;BME280;52593;42.648;23.332;2023-05-22T10:10:52;94303.13;;;20.20;42.40
65832;BME280;52593;42.648;23.332;2023-05-22T10:13:17;94301.03;;;20.27;42.14
65832;BME280;52593;42.648;23.332;2023-05-22T10:15:46;94300.91;;;20.17;41.51
65832;BME280;52593;42.648;23.332;2023-05-22T10:18:13;94295.00;;;20.42;41.70
65832;BME280;52593;42.648;23.332;2023-05-22T10:20:39;94304.25;;;20.41;41.29
65832;BME280;52593;42.648;23.332;2023-05-22T10:23:05;94299.28;;;20.55;44.09
65832;BME280;52593;42.648;23.332;2023-05-22T10:25:32;94306.16;;;20.24;46.45
65832;BME280;52593;42.648;23.332;2023-05-22T10:28:00;94309.16;;;19.88;47.28
65832;BME280;52593;42.648;23.332;2023-05-22T10:30:42;94312.59;;;19.50;48.92
65832;BME280;52593;42.648;23.332;2023-05-22T10:33:28;94315.97;;;19.11;49.86
65832;BME280;52593;42.648;23.332;2023-05-22T10:36:05;94320.50;;;18.82;52.37
65832;BME280;52593;42.648;23.332;2023-05-22T10:41:29;94350.28;;;17.09;71.67
65832;BME280;52593;42.648;23.332;2023-05-22T10:43:55;94346.19;;;16.51;74.32
65832;BME280;52593;42.648;23.332;2023-05-22T10:46:21;94340.78;;;15.89;72.83
65832;BME280;52593;42.648;23.332;2023-05-22T10:48:51;94338.38;;;15.81;77.45
65832;BME280;52593;42.648;23.332;2023-05-22T10:51:18;94335.69;;;15.74;77.52
65832;BME280;52593;42.648;23.332;2023-05-22T10:53:50;94325.69;;;16.07;78.99
65832;BME280;52593;42.648;23.332;2023-05-22T10:56:17;94320.16;;;16.38;78.76
65832;BME280;52593;42.648;23.332;2023-05-22T10:58:45;94325.38;;;16.70;76.34
65832;BME280;52593;42.648;23.332;2023-05-22T11:01:19;94321.38;;;17.10;70.84
65832;BME280;52593;42.648;23.332;2023-05-22T11:04:08;94317.69;;;17.35;67.33
65832;BME280;52593;42.648;23.332;2023-05-22T11:06:51;94311.25;;;17.59;67.71
65832;BME280;52593;42.648;23.332;2023-05-22T11:09:33;94312.81;;;17.79;62.96
65832;BME280;52593;42.648;23.332;2023-05-22T11:15:04;94304.09;;;18.48;59.97
65832;BME280;52593;42.648;23.332;2023-05-22T11:17:50;94297.97;;;18.41;61.43
65832;BME280;52593;42.648;23.332;2023-05-22T11:20:23;94300.44;;;18.42;60.14
65832;BME280;52593;42.648;23.332;2023-05-22T11:22:59;94299.41;;;18.31;60.08
65832;BME280;52593;42.648;23.332;2023-05-22T11:25:26;94309.56;;;18.12;62.07
65832;BME280;52593;42.648;23.332;2023-05-22T11:27:53;94331.00;;;17.90;66.39
65832;BME280;52593;42.648;23.332;2023-05-22T11:30:19;94344.56;;;17.60;67.71
65832;BME280;52593;42.648;23.332;2023-05-22T11:33:03;94355.91;;;17.08;67.30
65832;BME280;52593;42.648;23.332;2023-05-22T11:35:30;94363.59;;;16.74;65.67
65832;BME280;52593;42.648;23.332;2023-05-22T11:37:56;94365.44;;;16.18;61.99
65832;BME280;52593;42.648;23.332;2023-05-22T11:40:25;94361.00;;;16.05;64.94
65832;BME280;52593;42.648;23.332;2023-05-22T11:42:51;94373.50;;;15.99;65.69
65832;BME280;52593;42.648;23.332;2023-05-22T11:45:18;94374.50;;;15.80;66.94
65832;BME280;52593;42.648;23.332;2023-05-22T11:47:43;94379.53;;;15.69;65.43
65832;BME280;52593;42.648;23.332;2023-05-22T11:50:10;94380.09;;;15.78;65.27
65832;BME280;52593;42.648;23.332;2023-05-22T11:52:38;94377.03;;;16.00;64.91
65832;BME280;52593;42.648;23.332;2023-05-22T11:55:04;94379.47;;;16.27;63.70
65832;BME280;52593;42.648;23.332;2023-05-22T11:57:30;94368.56;;;16.58;63.21
65832;BME280;52593;42.648;23.332;2023-05-22T11:59:57;94373.28;;;16.82;65.11
65832;BME280;52593;42.648;23.332;2023-05-22T12:02:22;94357.44;;;16.67;64.10
65832;BME280;52593;42.648;23.332;2023-05-22T12:04:53;94363.06;;;16.65;65.05
65832;BME280;52593;42.648;23.332;2023-05-22T12:07:18;94367.72;;;16.58;67.12
65832;BME280;52593;42.648;23.332;2023-05-22T12:09:44;94354.22;;;16.58;66.57
65832;BME280;52593;42.648;23.332;2023-05-22T12:12:09;94368.97;;;16.37;71.06
65832;BME280;52593;42.648;23.332;2023-05-22T12:14:38;94371.13;;;16.10;73.90
65832;BME280;52593;42.648;23.332;2023-05-22T12:17:03;94369.31;;;15.78;76.84
65832;BME280;52593;42.648;23.332;2023-05-22T12:19:29;94369.44;;;15.58;75.86
65832;BME280;52593;42.648;23.332;2023-05-22T12:21:54;94365.13;;;15.25;73.54
65832;BME280;52593;42.648;23.332;2023-05-22T12:24:20;94360.41;;;15.14;75.09
65832;BME280;52593;42.648;23.332;2023-05-22T12:26:51;94354.78;;;15.22;78.15
65832;BME280;52593;42.648;23.332;2023-05-22T12:29:17;94352.63;;;15.31;74.50
65832;BME280;52593;42.648;23.332;2023-05-22T12:31:43;94354.44;;;15.44;76.98
65832;BME280;52593;42.648;23.332;2023-05-22T12:34:10;94345.34;;;15.63;76.69
65832;BME280;52593;42.648;23.332;2023-05-22T12:36:41;94355.13;;;15.90;77.17
65832;BME280;52593;42.648;23.332;2023-05-22T12:39:17;94339.25;;;16.18;76.29
65832;BME280;52593;42.648;23.332;2023-05-22T12:41:45;94339.66;;;16.40;74.58
65832;BME280;52593;42.648;23.332;2023-05-22T12:44:13;94336.16;;;16.58;70.02
65832;BME280;52593;42.648;23.332;2023-05-22T12:46:39;94338.53;;;16.67;74.83
65832;BME280;52593;42.648;23.332;2023-05-22T12:49:04;94334.25;;;16.96;72.61
65832;BME280;52593;42.648;23.332;2023-05-22T12:51:31;94334.25;;;17.26;69.94
65832;BME280;52593;42.648;23.332;2023-05-22T12:54:00;94332.34;;;17.27;68.08
65832;BME280;52593;42.648;23.332;2023-05-22T12:56:27;94335.66;;;17.29;74.86
65832;BME280;52593;42.648;23.332;2023-05-22T12:58:53;94333.81;;;17.41;75.17
65832;BME280;52593;42.648;23.332;2023-05-22T13:01:18;94331.25;;;17.70;70.43
65832;BME280;52593;42.648;23.332;2023-05-22T13:03:44;94322.50;;;17.98;66.80
65832;BME280;52593;42.648;23.332;2023-05-22T13:06:10;94326.28;;;18.21;60.99
65832;BME280;52593;42.648;23.332;2023-05-22T13:08:36;94315.63;;;18.67;58.57
65832;BME280;52593;42.648;23.332;2023-05-22T13:11:02;94317.63;;;18.60;57.86
65832;BME280;52593;42.648;23.332;2023-05-22T13:13:28;94310.53;;;18.59;55.02